sensor_id;sensor_type;location;lat;lon;timestamp;P1;durP1;ratioP1;P2;durP2;ratioP2
48999;SDS011;34808;48.144;17.158;2022-11-09T00:02:00;72.47;;;47.67;;
48999;SDS011;34808;48.144;17.158;2022-11-09T00:04:25;79.75;;;49.03;;
48999;SDS011;34808;48.144;17.158;2022-11-09T00:06:51;88.15;;;53.00;;
48999;SDS011;34808;48.144;17.158;2022-11-09T00:09:17;86.15;;;51.25;;
48999;SDS011;34808;48.144;17.158;2022-11-09T00:11:42;86.43;;;49.45;;
48999;SDS011;34808;48.144;17.158;2022-11-09T00:14:12;94.25;;;54.50;;
48999;SDS011;34808;48.144;17.158;2022-11-09T00:16:38;94.22;;;51.05;;
48999;SDS011;34808;48.144;17.158;2022-11-09T00:19:03;95.03;;;51.35;;
48999;SDS011;34808;48.144;17.158;2022-11-09T00:21:29;96.13;;;52.92;;
48999;SDS011;34808;48.144;17.158;2022-11-09T00:23:55;85.20;;;51.85;;
48999;SDS011;34808;48.144;17.158;2022-11-09T00:26:20;91.60;;;51.63;;
48999;SDS011;34808;48.144;17.158;2022-11-09T00:28:46;83.97;;;50.85;;
48999;SDS011;34808;48.144;17.158;2022-11-09T00:31:14;90.38;;;52.47;;
48999;SDS011;34808;48.144;17.158;2022-11-09T00:33:51;89.75;;;52.90;;
48999;SDS011;34808;48.144;17.158;2022-11-09T00:36:18;93.15;;;53.08;;
48999;SDS011;34808;48.144;17.158;2022-11-09T00:38:48;89.97;;;51.08;;
48999;SDS011;34808;48.144;17.158;2022-11-09T00:41:15;89.63;;;52.78;;
48999;SDS011;34808;48.144;17.158;2022-11-09T00:43:41;83.30;;;49.30;;
48999;SDS011;34808;48.144;17.158;2022-11-09T02:05:05;97.55;;;57.35;;
48999;SDS011;34808;48.144;17.158;2022-11-09T02:07:33;92.32;;;52.30;;
48999;SDS011;34808;48.144;17.158;2022-11-09T02:10:16;85.57;;;49.72;;
48999;SDS011;34808;48.144;17.158;2022-11-09T02:12:55;85.20;;;49.30;;
48999;SDS011;34808;48.144;17.158;2022-11-09T02:15:22;82.78;;;48.13;;
48999;SDS011;34808;48.144;17.158;2022-11-09T02:17:49;84.03;;;50.40;;
48999;SDS011;34808;48.144;17.158;2022-11-09T02:20:17;84.50;;;49.13;;
48999;SDS011;34808;48.144;17.158;2022-11-09T02:22:42;82.50;;;49.25;;
48999;SDS011;34808;48.144;17.158;2022-11-09T02:25:09;84.90;;;48.83;;
48999;SDS011;34808;48.144;17.158;2022-11-09T02:27:36;84.20;;;47.15;;
48999;SDS011;34808;48.144;17.158;2022-11-09T02:30:02;75.95;;;46.08;;
48999;SDS011;34808;48.144;17.158;2022-11-09T02:32:29;79.35;;;48.35;;
48999;SDS011;34808;48.144;17.158;2022-11-09T02:34:55;83.25;;;48.75;;
48999;SDS011;34808;48.144;17.158;2022-11-09T02:40:10;83.28;;;45.28;;
48999;SDS011;34808;48.144;17.158;2022-11-09T02:42:49;75.90;;;45.85;;
48999;SDS011;34808;48.144;17.158;2022-11-09T02:45:15;76.13;;;46.08;;
48999;SDS011;34808;48.144;17.158;2022-11-09T02:47:41;84.88;;;49.40;;
48999;SDS011;34808;48.144;17.158;2022-11-09T02:50:09;85.25;;;49.88;;
48999;SDS011;34808;48.144;17.158;2022-11-09T02:52:41;75.07;;;46.63;;
48999;SDS011;34808;48.144;17.158;2022-11-09T02:57:55;81.38;;;47.50;;
48999;SDS011;34808;48.144;17.158;2022-11-09T03:00:21;80.10;;;47.38;;
48999;SDS011;34808;48.144;17.158;2022-11-09T03:02:46;79.15;;;46.00;;
48999;SDS011;34808;48.144;17.158;2022-11-09T03:05:13;74.90;;;45.22;;
48999;SDS011;34808;48.144;17.158;2022-11-09T03:07:38;76.13;;;45.20;;
48999;SDS011;34808;48.144;17.158;2022-11-09T03:10:09;83.90;;;49.25;;
48999;SDS011;34808;48.144;17.158;2022-11-09T03:12:36;76.60;;;45.38;;
48999;SDS011;34808;48.144;17.158;2022-11-09T03:15:17;80.63;;;45.33;;
48999;SDS011;34808;48.144;17.158;2022-11-09T03:17:47;81.13;;;46.92;;
48999;SDS011;34808;48.144;17.158;2022-11-09T03:20:33;76.05;;;46.08;;
48999;SDS011;34808;48.144;17.158;2022-11-09T03:23:12;79.28;;;47.47;;
48999;SDS011;34808;48.144;17.158;2022-11-09T03:25:40;83.53;;;47.75;;
48999;SDS011;34808;48.144;17.158;2022-11-09T03:28:06;77.68;;;46.05;;
48999;SDS011;34808;48.144;17.158;2022-11-09T03:30:35;75.38;;;45.30;;
48999;SDS011;34808;48.144;17.158;2022-11-09T03:33:01;79.55;;;47.00;;
48999;SDS011;34808;48.144;17.158;2022-11-09T03:35:29;79.10;;;48.58;;
48999;SDS011;34808;48.144;17.158;2022-11-09T03:40:46;75.72;;;45.53;;
48999;SDS011;34808;48.144;17.158;2022-11-09T03:43:11;80.80;;;47.03;;
48999;SDS011;34808;48.144;17.158;2022-11-09T03:45:39;76.20;;;46.25;;
48999;SDS011;34808;48.144;17.158;2022-11-09T03:48:04;75.97;;;44.72;;
48999;SDS011;34808;48.144;17.158;2022-11-09T03:50:37;77.63;;;47.55;;
48999;SDS011;34808;48.144;17.158;2022-11-09T03:53:06;79.30;;;47.10;;
48999;SDS011;34808;48.144;17.158;2022-11-09T03:55:38;73.95;;;46.15;;
48999;SDS011;34808;48.144;17.158;2022-11-09T03:58:08;75.35;;;45.85;;
48999;SDS011;34808;48.144;17.158;2022-11-09T04:00:35;73.70;;;43.47;;
48999;SDS011;34808;48.144;17.158;2022-11-09T04:03:00;78.50;;;45.47;;
48999;SDS011;34808;48.144;17.158;2022-11-09T04:05:26;72.93;;;43.50;;
48999;SDS011;34808;48.144;17.158;2022-11-09T04:07:52;77.65;;;44.17;;
48999;SDS011;34808;48.144;17.158;2022-11-09T04:10:23;76.25;;;43.22;;
48999;SDS011;34808;48.144;17.158;2022-11-09T04:13:09;70.25;;;42.50;;
48999;SDS011;34808;48.144;17.158;2022-11-09T04:15:37;73.63;;;43.20;;
48999;SDS011;34808;48.144;17.158;2022-11-09T04:18:11;74.20;;;41.85;;
48999;SDS011;34808;48.144;17.158;2022-11-09T04:20:48;73.97;;;41.15;;
48999;SDS011;34808;48.144;17.158;2022-11-09T04:23:14;71.20;;;41.95;;
48999;SDS011;34808;48.144;17.158;2022-11-09T04:25:39;72.57;;;40.63;;
48999;SDS011;34808;48.144;17.158;2022-11-09T04:28:06;74.28;;;41.90;;
48999;SDS011;34808;48.144;17.158;2022-11-09T04:30:34;68.38;;;40.42;;
48999;SDS011;34808;48.144;17.158;2022-11-09T04:33:00;68.93;;;40.85;;
48999;SDS011;34808;48.144;17.158;2022-11-09T04:35:27;70.28;;;43.00;;
48999;SDS011;34808;48.144;17.158;2022-11-09T04:37:58;68.97;;;40.38;;
48999;SDS011;34808;48.144;17.158;2022-11-09T04:40:25;73.20;;;40.75;;
48999;SDS011;34808;48.144;17.158;2022-11-09T04:42:53;74.65;;;44.25;;
48999;SDS011;34808;48.144;17.158;2022-11-09T04:45:21;77.53;;;42.28;;
48999;SDS011;34808;48.144;17.158;2022-11-09T04:47:47;73.80;;;42.78;;
48999;SDS011;34808;48.144;17.158;2022-11-09T04:50:12;80.22;;;42.90;;
48999;SDS011;34808;48.144;17.158;2022-11-09T04:52:38;77.95;;;43.45;;
48999;SDS011;34808;48.144;17.158;2022-11-09T04:55:03;83.32;;;45.05;;
48999;SDS011;34808;48.144;17.158;2022-11-09T04:57:29;77.72;;;42.30;;
48999;SDS011;34808;48.144;17.158;2022-11-09T04:59:54;80.68;;;45.55;;
48999;SDS011;34808;48.144;17.158;2022-11-09T05:02:19;74.55;;;42.60;;
48999;SDS011;34808;48.144;17.158;2022-11-09T05:04:45;75.32;;;43.67;;
48999;SDS011;34808;48.144;17.158;2022-11-09T05:07:10;77.78;;;41.55;;
48999;SDS011;34808;48.144;17.158;2022-11-09T05:09:35;75.07;;;41.85;;
48999;SDS011;34808;48.144;17.158;2022-11-09T05:12:01;76.90;;;42.47;;
48999;SDS011;34808;48.144;17.158;2022-11-09T05:14:26;74.75;;;41.45;;
48999;SDS011;34808;48.144;17.158;2022-11-09T05:16:51;72.40;;;41.63;;
48999;SDS011;34808;48.144;17.158;2022-11-09T05:19:17;77.35;;;41.33;;
48999;SDS011;34808;48.144;17.158;2022-11-09T05:21:42;70.95;;;39.38;;
48999;SDS011;34808;48.144;17.158;2022-11-09T05:24:07;78.28;;;42.47;;
48999;SDS011;34808;48.144;17.158;2022-11-09T05:26:37;83.30;;;44.10;;
48999;SDS011;34808;48.144;17.158;2022-11-09T05:29:07;79.15;;;42.33;;
48999;SDS011;34808;48.144;17.158;2022-11-09T05:31:34;86.30;;;46.88;;
48999;SDS011;34808;48.144;17.158;2022-11-09T05:34:00;79.18;;;44.85;;
48999;SDS011;34808;48.144;17.158;2022-11-09T05:36:26;85.60;;;45.90;;
48999;SDS011;34808;48.144;17.158;2022-11-09T05:38:54;84.53;;;44.55;;
48999;SDS011;34808;48.144;17.158;2022-11-09T05:41:19;80.30;;;41.90;;
48999;SDS011;34808;48.144;17.158;2022-11-09T05:43:45;80.22;;;44.72;;
48999;SDS011;34808;48.144;17.158;2022-11-09T05:46:14;81.82;;;44.83;;
48999;SDS011;34808;48.144;17.158;2022-11-09T05:48:40;81.05;;;43.85;;
48999;SDS011;34808;48.144;17.158;2022-11-09T05:51:07;86.15;;;43.58;;
48999;SDS011;34808;48.144;17.158;2022-11-09T05:53:34;83.07;;;45.35;;
48999;SDS011;34808;48.144;17.158;2022-11-09T05:56:04;81.90;;;43.25;;
48999;SDS011;34808;48.144;17.158;2022-11-09T05:58:31;79.82;;;41.60;;
48999;SDS011;34808;48.144;17.158;2022-11-09T06:01:01;76.97;;;42.00;;
48999;SDS011;34808;48.144;17.158;2022-11-09T06:03:28;80.18;;;43.60;;
48999;SDS011;34808;48.144;17.158;2022-11-09T06:05:53;78.65;;;41.15;;
48999;SDS011;34808;48.144;17.158;2022-11-09T06:08:18;81.13;;;42.28;;
48999;SDS011;34808;48.144;17.158;2022-11-09T06:10:44;79.07;;;41.92;;
48999;SDS011;34808;48.144;17.158;2022-11-09T06:13:10;79.47;;;44.53;;
48999;SDS011;34808;48.144;17.158;2022-11-09T06:15:35;78.00;;;43.92;;
48999;SDS011;34808;48.144;17.158;2022-11-09T06:18:01;87.40;;;44.28;;
48999;SDS011;34808;48.144;17.158;2022-11-09T06:20:27;79.45;;;43.22;;
48999;SDS011;34808;48.144;17.158;2022-11-09T06:22:53;83.82;;;43.95;;
48999;SDS011;34808;48.144;17.158;2022-11-09T06:25:19;78.40;;;41.05;;
48999;SDS011;34808;48.144;17.158;2022-11-09T06:27:45;79.97;;;44.05;;
48999;SDS011;34808;48.144;17.158;2022-11-09T06:30:10;74.97;;;40.78;;
48999;SDS011;34808;48.144;17.158;2022-11-09T06:32:36;73.95;;;40.30;;
48999;SDS011;34808;48.144;17.158;2022-11-09T06:35:01;80.07;;;41.22;;
48999;SDS011;34808;48.144;17.158;2022-11-09T06:37:27;81.20;;;40.05;;
48999;SDS011;34808;48.144;17.158;2022-11-09T06:39:52;75.32;;;39.22;;
48999;SDS011;34808;48.144;17.158;2022-11-09T06:42:17;71.75;;;39.22;;
48999;SDS011;34808;48.144;17.158;2022-11-09T06:44:43;74.55;;;38.80;;
48999;SDS011;34808;48.144;17.158;2022-11-09T06:47:08;77.22;;;41.28;;
48999;SDS011;34808;48.144;17.158;2022-11-09T06:49:33;74.50;;;40.83;;
48999;SDS011;34808;48.144;17.158;2022-11-09T06:51:59;74.78;;;38.67;;
48999;SDS011;34808;48.144;17.158;2022-11-09T06:54:24;74.88;;;40.70;;
48999;SDS011;34808;48.144;17.158;2022-11-09T06:56:49;70.97;;;38.83;;
48999;SDS011;34808;48.144;17.158;2022-11-09T06:59:18;72.78;;;39.47;;
48999;SDS011;34808;48.144;17.158;2022-11-09T07:01:43;78.43;;;40.22;;
48999;SDS011;34808;48.144;17.158;2022-11-09T07:04:10;70.90;;;38.80;;
48999;SDS011;34808;48.144;17.158;2022-11-09T07:06:41;67.22;;;37.67;;
48999;SDS011;34808;48.144;17.158;2022-11-09T07:09:07;70.45;;;39.55;;
48999;SDS011;34808;48.144;17.158;2022-11-09T07:11:33;78.80;;;40.50;;
48999;SDS011;34808;48.144;17.158;2022-11-09T07:13:58;71.55;;;39.67;;
48999;SDS011;34808;48.144;17.158;2022-11-09T07:16:25;66.35;;;38.08;;
48999;SDS011;34808;48.144;17.158;2022-11-09T07:18:50;74.43;;;41.25;;
48999;SDS011;34808;48.144;17.158;2022-11-09T07:21:16;76.63;;;38.90;;
48999;SDS011;34808;48.144;17.158;2022-11-09T07:23:42;70.30;;;36.83;;
48999;SDS011;34808;48.144;17.158;2022-11-09T07:26:07;70.07;;;38.40;;
48999;SDS011;34808;48.144;17.158;2022-11-09T07:28:33;71.60;;;39.38;;
48999;SDS011;34808;48.144;17.158;2022-11-09T07:30:59;75.78;;;38.78;;
48999;SDS011;34808;48.144;17.158;2022-11-09T07:33:24;66.82;;;37.50;;
48999;SDS011;34808;48.144;17.158;2022-11-09T07:35:50;64.60;;;37.65;;
48999;SDS011;34808;48.144;17.158;2022-11-09T07:38:15;66.57;;;37.42;;
48999;SDS011;34808;48.144;17.158;2022-11-09T07:40:42;66.78;;;39.20;;
48999;SDS011;34808;48.144;17.158;2022-11-09T07:43:08;66.70;;;36.85;;
48999;SDS011;34808;48.144;17.158;2022-11-09T07:45:34;71.75;;;38.65;;
48999;SDS011;34808;48.144;17.158;2022-11-09T07:48:01;66.53;;;37.05;;
48999;SDS011;34808;48.144;17.158;2022-11-09T07:50:29;68.47;;;38.03;;
48999;SDS011;34808;48.144;17.158;2022-11-09T07:52:58;70.00;;;37.33;;
48999;SDS011;34808;48.144;17.158;2022-11-09T07:55:25;61.72;;;36.78;;
48999;SDS011;34808;48.144;17.158;2022-11-09T07:57:56;66.97;;;38.60;;
48999;SDS011;34808;48.144;17.158;2022-11-09T08:00:23;59.17;;;35.28;;
48999;SDS011;34808;48.144;17.158;2022-11-09T08:02:49;65.40;;;37.63;;
48999;SDS011;34808;48.144;17.158;2022-11-09T08:05:14;61.00;;;37.28;;
48999;SDS011;34808;48.144;17.158;2022-11-09T08:07:40;66.45;;;38.92;;
48999;SDS011;34808;48.144;17.158;2022-11-09T08:10:05;67.63;;;39.65;;
48999;SDS011;34808;48.144;17.158;2022-11-09T08:12:31;64.75;;;37.40;;
48999;SDS011;34808;48.144;17.158;2022-11-09T08:14:56;67.40;;;38.60;;
48999;SDS011;34808;48.144;17.158;2022-11-09T08:17:22;61.97;;;38.80;;
48999;SDS011;34808;48.144;17.158;2022-11-09T08:19:47;68.93;;;38.17;;
48999;SDS011;34808;48.144;17.158;2022-11-09T08:22:12;61.60;;;37.50;;
48999;SDS011;34808;48.144;17.158;2022-11-09T08:24:38;68.30;;;40.30;;
48999;SDS011;34808;48.144;17.158;2022-11-09T08:27:03;59.88;;;36.88;;
48999;SDS011;34808;48.144;17.158;2022-11-09T08:29:28;67.38;;;39.33;;
48999;SDS011;34808;48.144;17.158;2022-11-09T08:31:54;69.75;;;40.50;;
48999;SDS011;34808;48.144;17.158;2022-11-09T08:34:19;66.93;;;38.45;;
48999;SDS011;34808;48.144;17.158;2022-11-09T08:36:44;64.40;;;35.97;;
48999;SDS011;34808;48.144;17.158;2022-11-09T08:39:10;65.82;;;39.83;;
48999;SDS011;34808;48.144;17.158;2022-11-09T08:41:35;71.10;;;40.78;;
48999;SDS011;34808;48.144;17.158;2022-11-09T08:44:01;63.90;;;39.95;;
48999;SDS011;34808;48.144;17.158;2022-11-09T08:46:27;64.70;;;37.22;;
48999;SDS011;34808;48.144;17.158;2022-11-09T08:48:52;62.20;;;37.58;;
48999;SDS011;34808;48.144;17.158;2022-11-09T08:51:20;64.63;;;40.08;;
48999;SDS011;34808;48.144;17.158;2022-11-09T08:53:46;66.57;;;40.63;;
48999;SDS011;34808;48.144;17.158;2022-11-09T08:56:14;68.15;;;40.65;;
48999;SDS011;34808;48.144;17.158;2022-11-09T08:58:43;59.67;;;37.80;;
48999;SDS011;34808;48.144;17.158;2022-11-09T09:01:09;65.43;;;39.80;;
48999;SDS011;34808;48.144;17.158;2022-11-09T09:03:35;66.47;;;40.08;;
48999;SDS011;34808;48.144;17.158;2022-11-09T09:06:02;66.55;;;39.22;;
48999;SDS011;34808;48.144;17.158;2022-11-09T09:08:28;60.47;;;38.90;;
48999;SDS011;34808;48.144;17.158;2022-11-09T09:10:54;63.25;;;38.70;;
48999;SDS011;34808;48.144;17.158;2022-11-09T09:13:19;65.55;;;39.15;;
48999;SDS011;34808;48.144;17.158;2022-11-09T09:15:46;66.63;;;40.10;;
48999;SDS011;34808;48.144;17.158;2022-11-09T09:18:12;59.10;;;38.45;;
48999;SDS011;34808;48.144;17.158;2022-11-09T09:20:37;63.22;;;40.60;;
48999;SDS011;34808;48.144;17.158;2022-11-09T09:23:03;64.93;;;40.95;;
48999;SDS011;34808;48.144;17.158;2022-11-09T09:25:30;61.78;;;38.45;;
48999;SDS011;34808;48.144;17.158;2022-11-09T09:28:00;57.92;;;38.65;;
48999;SDS011;34808;48.144;17.158;2022-11-09T09:30:26;63.47;;;39.67;;
48999;SDS011;34808;48.144;17.158;2022-11-09T09:32:58;64.47;;;39.53;;
48999;SDS011;34808;48.144;17.158;2022-11-09T09:35:26;67.60;;;40.40;;
48999;SDS011;34808;48.144;17.158;2022-11-09T09:37:52;61.35;;;39.80;;
48999;SDS011;34808;48.144;17.158;2022-11-09T09:40:19;61.85;;;38.88;;
48999;SDS011;34808;48.144;17.158;2022-11-09T09:42:48;59.78;;;38.03;;
48999;SDS011;34808;48.144;17.158;2022-11-09T09:45:18;59.40;;;38.28;;
48999;SDS011;34808;48.144;17.158;2022-11-09T09:47:55;60.15;;;39.20;;
48999;SDS011;34808;48.144;17.158;2022-11-09T09:50:36;58.00;;;36.92;;
48999;SDS011;34808;48.144;17.158;2022-11-09T09:53:13;57.63;;;38.80;;
48999;SDS011;34808;48.144;17.158;2022-11-09T09:55:48;54.25;;;37.22;;
48999;SDS011;34808;48.144;17.158;2022-11-09T09:58:23;56.08;;;36.15;;
48999;SDS011;34808;48.144;17.158;2022-11-09T10:00:55;58.58;;;38.35;;
48999;SDS011;34808;48.144;17.158;2022-11-09T10:03:23;62.83;;;40.00;;
48999;SDS011;34808;48.144;17.158;2022-11-09T10:14:39;59.80;;;38.75;;
48999;SDS011;34808;48.144;17.158;2022-11-09T10:17:23;60.10;;;40.58;;
48999;SDS011;34808;48.144;17.158;2022-11-09T10:27:39;60.30;;;40.30;;
48999;SDS011;34808;48.144;17.158;2022-11-09T10:30:13;52.22;;;35.45;;
48999;SDS011;34808;48.144;17.158;2022-11-09T10:32:43;56.00;;;36.58;;
48999;SDS011;34808;48.144;17.158;2022-11-09T10:37:38;48.30;;;33.72;;
48999;SDS011;34808;48.144;17.158;2022-11-09T10:40:22;53.47;;;35.05;;
48999;SDS011;34808;48.144;17.158;2022-11-09T10:43:09;56.08;;;37.75;;
48999;SDS011;34808;48.144;17.158;2022-11-09T10:45:37;53.90;;;37.80;;
48999;SDS011;34808;48.144;17.158;2022-11-09T10:48:04;55.80;;;39.30;;
48999;SDS011;34808;48.144;17.158;2022-11-09T10:53:12;60.40;;;40.08;;
48999;SDS011;34808;48.144;17.158;2022-11-09T10:58:24;58.47;;;37.13;;
48999;SDS011;34808;48.144;17.158;2022-11-09T11:00:58;57.28;;;38.08;;
48999;SDS011;34808;48.144;17.158;2022-11-09T11:03:25;55.92;;;38.10;;
48999;SDS011;34808;48.144;17.158;2022-11-09T11:05:59;58.00;;;37.70;;
48999;SDS011;34808;48.144;17.158;2022-11-09T11:08:37;50.15;;;34.97;;
48999;SDS011;34808;48.144;17.158;2022-11-09T11:11:05;48.05;;;34.20;;
48999;SDS011;34808;48.144;17.158;2022-11-09T11:13:32;46.58;;;33.15;;
48999;SDS011;34808;48.144;17.158;2022-11-09T11:15:58;55.90;;;35.35;;
48999;SDS011;34808;48.144;17.158;2022-11-09T11:18:24;54.83;;;37.50;;
48999;SDS011;34808;48.144;17.158;2022-11-09T11:21:05;52.22;;;36.22;;
48999;SDS011;34808;48.144;17.158;2022-11-09T11:23:38;51.67;;;36.45;;
48999;SDS011;34808;48.144;17.158;2022-11-09T11:28:48;54.03;;;36.15;;
48999;SDS011;34808;48.144;17.158;2022-11-09T11:31:18;55.65;;;37.63;;
48999;SDS011;34808;48.144;17.158;2022-11-09T11:33:44;52.60;;;36.92;;
48999;SDS011;34808;48.144;17.158;2022-11-09T11:38:55;53.00;;;36.38;;
48999;SDS011;34808;48.144;17.158;2022-11-09T12:03:39;48.58;;;34.63;;
48999;SDS011;34808;48.144;17.158;2022-11-09T12:06:22;48.00;;;34.47;;
48999;SDS011;34808;48.144;17.158;2022-11-09T12:14:53;47.72;;;33.17;;
48999;SDS011;34808;48.144;17.158;2022-11-09T12:36:56;48.65;;;34.33;;
48999;SDS011;34808;48.144;17.158;2022-11-09T12:39:46;47.70;;;33.20;;
48999;SDS011;34808;48.144;17.158;2022-11-09T12:42:20;44.63;;;31.42;;
48999;SDS011;34808;48.144;17.158;2022-11-09T12:45:04;44.38;;;33.50;;
48999;SDS011;34808;48.144;17.158;2022-11-09T12:47:40;43.05;;;31.63;;
48999;SDS011;34808;48.144;17.158;2022-11-09T12:50:12;42.38;;;32.05;;
48999;SDS011;34808;48.144;17.158;2022-11-09T12:52:48;44.78;;;32.28;;
48999;SDS011;34808;48.144;17.158;2022-11-09T12:55:20;42.35;;;32.38;;
48999;SDS011;34808;48.144;17.158;2022-11-09T12:57:53;45.95;;;33.20;;
48999;SDS011;34808;48.144;17.158;2022-11-09T13:03:00;47.83;;;32.67;;
48999;SDS011;34808;48.144;17.158;2022-11-09T13:07:58;42.15;;;30.95;;
48999;SDS011;34808;48.144;17.158;2022-11-09T13:13:03;44.10;;;30.35;;
48999;SDS011;34808;48.144;17.158;2022-11-09T13:15:35;43.10;;;31.15;;
48999;SDS011;34808;48.144;17.158;2022-11-09T13:18:04;43.60;;;32.30;;
48999;SDS011;34808;48.144;17.158;2022-11-09T13:20:46;44.20;;;30.25;;
48999;SDS011;34808;48.144;17.158;2022-11-09T13:26:01;41.20;;;29.95;;
48999;SDS011;34808;48.144;17.158;2022-11-09T13:30:53;50.03;;;31.13;;
48999;SDS011;34808;48.144;17.158;2022-11-09T13:38:31;38.17;;;28.48;;
48999;SDS011;34808;48.144;17.158;2022-11-09T13:40:58;39.72;;;28.50;;
48999;SDS011;34808;48.144;17.158;2022-11-09T13:43:31;38.08;;;28.27;;
48999;SDS011;34808;48.144;17.158;2022-11-09T13:46:04;39.35;;;29.25;;
48999;SDS011;34808;48.144;17.158;2022-11-09T13:48:50;43.92;;;30.05;;
48999;SDS011;34808;48.144;17.158;2022-11-09T13:51:45;43.45;;;30.25;;
48999;SDS011;34808;48.144;17.158;2022-11-09T13:54:28;40.78;;;29.05;;
48999;SDS011;34808;48.144;17.158;2022-11-09T13:56:57;38.72;;;28.90;;
48999;SDS011;34808;48.144;17.158;2022-11-09T13:59:28;44.45;;;30.70;;
48999;SDS011;34808;48.144;17.158;2022-11-09T14:02:01;43.47;;;31.27;;
48999;SDS011;34808;48.144;17.158;2022-11-09T14:04:30;50.53;;;32.63;;
48999;SDS011;34808;48.144;17.158;2022-11-09T14:13:04;49.25;;;32.45;;
48999;SDS011;34808;48.144;17.158;2022-11-09T14:15:46;45.60;;;32.30;;
48999;SDS011;34808;48.144;17.158;2022-11-09T14:18:20;43.90;;;31.73;;
48999;SDS011;34808;48.144;17.158;2022-11-09T14:26:59;44.13;;;31.77;;
48999;SDS011;34808;48.144;17.158;2022-11-09T14:29:27;43.13;;;31.77;;
48999;SDS011;34808;48.144;17.158;2022-11-09T14:31:57;42.50;;;29.75;;
48999;SDS011;34808;48.144;17.158;2022-11-09T14:34:24;52.95;;;33.00;;
48999;SDS011;34808;48.144;17.158;2022-11-09T14:36:49;46.30;;;31.95;;
48999;SDS011;34808;48.144;17.158;2022-11-09T14:39:25;47.50;;;31.92;;
48999;SDS011;34808;48.144;17.158;2022-11-09T14:41:54;40.25;;;30.48;;
48999;SDS011;34808;48.144;17.158;2022-11-09T14:44:30;41.47;;;28.80;;
48999;SDS011;34808;48.144;17.158;2022-11-09T14:47:04;45.85;;;30.65;;
48999;SDS011;34808;48.144;17.158;2022-11-09T14:49:33;42.70;;;30.48;;
48999;SDS011;34808;48.144;17.158;2022-11-09T14:51:59;43.70;;;31.63;;
48999;SDS011;34808;48.144;17.158;2022-11-09T14:54:25;44.53;;;29.83;;
48999;SDS011;34808;48.144;17.158;2022-11-09T14:56:51;46.08;;;31.08;;
48999;SDS011;34808;48.144;17.158;2022-11-09T14:59:25;39.83;;;30.42;;
48999;SDS011;34808;48.144;17.158;2022-11-09T15:02:13;45.63;;;32.10;;
48999;SDS011;34808;48.144;17.158;2022-11-09T15:04:56;40.30;;;29.13;;
48999;SDS011;34808;48.144;17.158;2022-11-09T15:07:23;42.90;;;29.60;;
48999;SDS011;34808;48.144;17.158;2022-11-09T15:09:55;44.55;;;30.27;;
48999;SDS011;34808;48.144;17.158;2022-11-09T15:12:25;39.65;;;27.10;;
48999;SDS011;34808;48.144;17.158;2022-11-09T15:14:54;46.78;;;29.95;;
48999;SDS011;34808;48.144;17.158;2022-11-09T15:17:32;42.20;;;30.02;;
48999;SDS011;34808;48.144;17.158;2022-11-09T15:20:02;43.63;;;29.73;;
48999;SDS011;34808;48.144;17.158;2022-11-09T15:22:42;52.22;;;32.78;;
48999;SDS011;34808;48.144;17.158;2022-11-09T15:36:06;45.45;;;30.60;;
48999;SDS011;34808;48.144;17.158;2022-11-09T15:38:57;41.90;;;29.95;;
48999;SDS011;34808;48.144;17.158;2022-11-09T15:41:25;45.78;;;32.75;;
48999;SDS011;34808;48.144;17.158;2022-11-09T15:43:51;41.25;;;30.75;;
48999;SDS011;34808;48.144;17.158;2022-11-09T15:46:21;43.13;;;30.27;;
48999;SDS011;34808;48.144;17.158;2022-11-09T15:48:53;51.53;;;30.73;;
48999;SDS011;34808;48.144;17.158;2022-11-09T15:51:21;54.65;;;31.77;;
48999;SDS011;34808;48.144;17.158;2022-11-09T15:53:46;50.47;;;33.22;;
48999;SDS011;34808;48.144;17.158;2022-11-09T15:56:16;49.22;;;31.80;;
48999;SDS011;34808;48.144;17.158;2022-11-09T15:58:44;50.97;;;32.45;;
48999;SDS011;34808;48.144;17.158;2022-11-09T16:01:12;50.38;;;31.33;;
48999;SDS011;34808;48.144;17.158;2022-11-09T16:03:38;46.58;;;30.92;;
48999;SDS011;34808;48.144;17.158;2022-11-09T16:06:03;46.83;;;30.75;;
48999;SDS011;34808;48.144;17.158;2022-11-09T16:08:29;45.28;;;32.03;;
48999;SDS011;34808;48.144;17.158;2022-11-09T16:10:54;51.22;;;30.55;;
48999;SDS011;34808;48.144;17.158;2022-11-09T16:13:19;52.00;;;32.72;;
48999;SDS011;34808;48.144;17.158;2022-11-09T16:15:47;44.75;;;31.77;;
48999;SDS011;34808;48.144;17.158;2022-11-09T16:18:12;48.45;;;30.23;;
48999;SDS011;34808;48.144;17.158;2022-11-09T16:20:38;46.70;;;33.15;;
48999;SDS011;34808;48.144;17.158;2022-11-09T16:23:04;46.05;;;31.95;;
48999;SDS011;34808;48.144;17.158;2022-11-09T16:25:29;53.95;;;33.55;;
48999;SDS011;34808;48.144;17.158;2022-11-09T16:27:54;52.58;;;33.00;;
48999;SDS011;34808;48.144;17.158;2022-11-09T16:30:20;50.15;;;33.00;;
48999;SDS011;34808;48.144;17.158;2022-11-09T16:32:45;51.78;;;33.08;;
48999;SDS011;34808;48.144;17.158;2022-11-09T16:35:13;46.55;;;32.88;;
48999;SDS011;34808;48.144;17.158;2022-11-09T16:37:47;49.50;;;33.08;;
48999;SDS011;34808;48.144;17.158;2022-11-09T16:40:15;48.17;;;33.13;;
48999;SDS011;34808;48.144;17.158;2022-11-09T16:42:41;50.08;;;33.58;;
48999;SDS011;34808;48.144;17.158;2022-11-09T16:45:08;48.35;;;33.10;;
48999;SDS011;34808;48.144;17.158;2022-11-09T16:47:37;47.30;;;33.63;;
48999;SDS011;34808;48.144;17.158;2022-11-09T16:50:06;47.10;;;33.58;;
48999;SDS011;34808;48.144;17.158;2022-11-09T16:52:32;45.22;;;32.25;;
48999;SDS011;34808;48.144;17.158;2022-11-09T16:54:57;52.50;;;32.53;;
48999;SDS011;34808;48.144;17.158;2022-11-09T16:57:23;53.90;;;33.30;;
48999;SDS011;34808;48.144;17.158;2022-11-09T16:59:48;47.83;;;31.40;;
48999;SDS011;34808;48.144;17.158;2022-11-09T17:02:13;53.63;;;33.38;;
48999;SDS011;34808;48.144;17.158;2022-11-09T17:04:42;50.85;;;31.17;;
48999;SDS011;34808;48.144;17.158;2022-11-09T17:07:08;50.42;;;33.55;;
48999;SDS011;34808;48.144;17.158;2022-11-09T17:09:34;49.63;;;32.25;;
48999;SDS011;34808;48.144;17.158;2022-11-09T17:11:59;48.45;;;31.52;;
48999;SDS011;34808;48.144;17.158;2022-11-09T17:14:30;47.72;;;30.85;;
48999;SDS011;34808;48.144;17.158;2022-11-09T17:16:55;49.55;;;31.30;;
48999;SDS011;34808;48.144;17.158;2022-11-09T17:19:21;51.60;;;31.98;;
48999;SDS011;34808;48.144;17.158;2022-11-09T17:21:51;45.97;;;30.95;;
48999;SDS011;34808;48.144;17.158;2022-11-09T17:24:22;49.78;;;32.22;;
48999;SDS011;34808;48.144;17.158;2022-11-09T17:26:50;50.58;;;31.55;;
48999;SDS011;34808;48.144;17.158;2022-11-09T17:29:15;56.65;;;33.90;;
48999;SDS011;34808;48.144;17.158;2022-11-09T17:31:41;64.25;;;36.28;;
48999;SDS011;34808;48.144;17.158;2022-11-09T17:34:06;64.07;;;40.28;;
48999;SDS011;34808;48.144;17.158;2022-11-09T17:36:32;67.28;;;41.53;;
48999;SDS011;34808;48.144;17.158;2022-11-09T17:38:58;67.80;;;40.55;;
48999;SDS011;34808;48.144;17.158;2022-11-09T17:41:24;68.38;;;39.80;;
48999;SDS011;34808;48.144;17.158;2022-11-09T17:43:49;67.30;;;40.67;;